Time;durP1;ratioP1;P1;durP2;ratioP2;P2;SDS_P1;SDS_P2;PMS_P1;PMS_P2;Temp;Humidity;BMP_temperature;BMP_pressure;BME280_temperature;BME280_humidity;BME280_pressure;Samples;Min_cycle;Max_cycle;Signal;HPM_P1;HPM_P2
2022/07/31 00:00:30;;;;;;;0.00;0.00;;;19.30;74.30;;;;;;5030796;28;20063;-71
2022/07/31 00:02:56;;;;;;;0.00;0.00;;;19.30;74.50;;;;;;5031079;28;20049;-71
2022/07/31 00:05:23;;;;;;;0.00;0.00;;;19.30;74.90;;;;;;5030427;28;20049;-71
2022/07/31 00:07:49;;;;;;;0.00;0.00;;;19.30;74.90;;;;;;5029888;28;20073;-72
2022/07/31 00:10:15;;;;;;;0.00;0.00;;;19.20;74.90;;;;;;5030995;28;20064;-71
2022/07/31 00:12:40;;;;;;;0.00;0.00;;;19.30;74.70;;;;;;5031247;28;20041;-71
2022/07/31 00:15:08;;;;;;;0.00;0.00;;;19.20;74.70;;;;;;5030319;28;20076;-71
2022/07/31 00:17:34;;;;;;;0.00;0.00;;;19.20;74.60;;;;;;5030539;28;20045;-72
2022/07/31 00:20:00;;;;;;;0.00;0.00;;;19.30;74.70;;;;;;5030507;28;20033;-71
2022/07/31 00:22:26;;;;;;;0.00;0.00;;;19.20;74.60;;;;;;5030965;28;20128;-72
2022/07/31 00:24:52;;;;;;;0.00;0.00;;;19.30;74.60;;;;;;5029739;28;20128;-71
2022/07/31 00:27:17;;;;;;;0.00;0.00;;;19.20;74.70;;;;;;5030090;28;20075;-71
2022/07/31 00:29:43;;;;;;;0.00;0.00;;;19.20;74.90;;;;;;5030866;28;20498;-72
2022/07/31 00:32:10;;;;;;;0.00;0.00;;;19.20;75.00;;;;;;5030719;28;20045;-71
2022/07/31 00:34:35;;;;;;;0.00;0.00;;;19.30;75.10;;;;;;5029814;28;20051;-71
2022/07/31 00:37:01;;;;;;;0.00;0.00;;;19.20;75.40;;;;;;5030531;28;20037;-71
2022/07/31 00:39:27;;;;;;;0.00;0.00;;;19.20;75.20;;;;;;5029167;28;20049;-71
2022/07/31 00:41:53;;;;;;;0.00;0.00;;;19.20;75.10;;;;;;5029973;28;20115;-71
2022/07/31 00:44:20;;;;;;;0.00;0.00;;;19.30;75.00;;;;;;5029473;28;20100;-71
2022/07/31 00:46:46;;;;;;;0.00;0.00;;;19.20;75.10;;;;;;5029849;28;20046;-72
2022/07/31 00:49:11;;;;;;;0.00;0.00;;;19.20;75.10;;;;;;5030228;28;20087;-72
2022/07/31 00:51:38;;;;;;;0.00;0.00;;;19.20;75.00;;;;;;5029883;28;20050;-71
2022/07/31 00:54:05;;;;;;;0.00;0.00;;;19.20;75.00;;;;;;5028143;28;20482;-71
2022/07/31 00:56:31;;;;;;;0.00;0.00;;;19.20;74.90;;;;;;5029681;28;20041;-72
2022/07/31 00:58:57;;;;;;;0.00;0.00;;;19.20;74.80;;;;;;5028570;28;20107;-71
2022/07/31 01:01:22;;;;;;;0.00;0.00;;;19.20;74.80;;;;;;5030086;28;20041;-72
2022/07/31 01:03:48;;;;;;;0.00;0.00;;;19.20;74.90;;;;;;5029390;28;20433;-71
2022/07/31 01:06:14;;;;;;;0.00;0.00;;;19.20;74.90;;;;;;5030202;28;20049;-72
2022/07/31 01:08:39;;;;;;;0.00;0.00;;;19.20;75.00;;;;;;5029923;28;20090;-71
2022/07/31 01:11:26;;;;;;;0.00;0.00;;;19.20;74.80;;;;;;5030166;28;20068;-71
2022/07/31 01:14:00;;;;;;;0.00;0.00;;;19.10;74.80;;;;;;5029040;28;20399;-71
2022/07/31 01:16:34;;;;;;;0.00;0.00;;;19.10;74.70;;;;;;5029737;28;20052;-72
2022/07/31 01:19:17;;;;;;;0.00;0.00;;;19.10;74.70;;;;;;5029741;28;20046;-71
2022/07/31 01:22:06;;;;;;;0.00;0.00;;;19.00;74.70;;;;;;5029359;28;20081;-71
2022/07/31 01:24:52;;;;;;;0.00;0.00;;;19.00;74.70;;;;;;5020233;28;20036;-71
2022/07/31 01:27:47;;;;;;;0.00;0.00;;;19.10;74.80;;;;;;5028298;28;20045;-71
2022/07/31 01:30:13;;;;;;;0.00;0.00;;;19.00;75.00;;;;;;5029519;28;20049;-71
2022/07/31 01:32:48;;;;;;;0.00;0.00;;;19.00;74.80;;;;;;5027906;28;20041;-71
2022/07/31 01:35:31;;;;;;;0.00;0.00;;;19.00;75.00;;;;;;5029194;28;20049;-71
2022/07/31 01:38:14;;;;;;;0.00;0.00;;;19.00;75.10;;;;;;5028974;28;20522;-71
2022/07/31 01:40:45;;;;;;;0.00;0.00;;;19.00;74.80;;;;;;5027368;28;20052;-71
2022/07/31 01:43:20;;;;;;;0.00;0.00;;;19.00;74.70;;;;;;5028331;28;20049;-71
2022/07/31 01:45:49;;;;;;;0.00;0.00;;;19.00;74.70;;;;;;5028871;28;20091;-71
2022/07/31 01:48:16;;;;;;;0.00;0.00;;;19.00;74.60;;;;;;5028836;28;20049;-71
2022/07/31 01:50:45;;;;;;;0.00;0.00;;;19.00;74.40;;;;;;5029138;28;20460;-72
2022/07/31 01:53:14;;;;;;;0.00;0.00;;;19.00;74.20;;;;;;5028548;28;20045;-71
2022/07/31 01:55:42;;;;;;;0.00;0.00;;;19.00;74.30;;;;;;5028762;28;20107;-71
2022/07/31 01:58:10;;;;;;;0.00;0.00;;;19.00;74.00;;;;;;5029059;28;20041;-71
2022/07/31 02:00:37;;;;;;;0.00;0.00;;;19.00;74.00;;;;;;5011329;28;20124;-71
2022/07/31 02:03:04;;;;;;;0.00;0.00;;;19.00;74.00;;;;;;5028394;28;20033;-71
2022/07/31 02:05:31;;;;;;;0.00;0.00;;;19.00;74.00;;;;;;5010832;28;20121;-71
2022/07/31 02:07:57;;;;;;;0.00;0.00;;;19.00;74.10;;;;;;5011154;28;20056;-71
2022/07/31 02:10:24;;;;;;;0.00;0.00;;;19.00;74.10;;;;;;5029279;28;20132;-71
2022/07/31 02:12:50;;;;;;;0.00;0.00;;;19.10;74.20;;;;;;5028310;28;20041;-71
2022/07/31 02:15:17;;;;;;;0.00;0.00;;;19.00;74.20;;;;;;5028448;28;20037;-71
2022/07/31 02:17:44;;;;;;;0.00;0.00;;;19.10;74.20;;;;;;5029051;28;20060;-72
2022/07/31 02:20:12;;;;;;;0.00;0.00;;;19.00;74.30;;;;;;5028856;28;20045;-71
2022/07/31 02:22:37;;;;;;;0.00;0.00;;;19.00;74.40;;;;;;5027932;28;20037;-71
2022/07/31 02:25:05;;;;;;;0.00;0.00;;;19.10;74.50;;;;;;5028595;28;20042;-72
2022/07/31 02:27:32;;;;;;;0.00;0.00;;;19.00;74.60;;;;;;5028327;28;20041;-71
2022/07/31 02:30:01;;;;;;;0.00;0.00;;;19.00;74.60;;;;;;5027275;28;20116;-72
2022/07/31 02:32:28;;;;;;;0.00;0.00;;;19.00;74.70;;;;;;5028030;28;20041;-71
2022/07/31 02:34:57;;;;;;;0.00;0.00;;;19.00;74.80;;;;;;5027775;28;20059;-72
2022/07/31 02:37:24;;;;;;;0.00;0.00;;;18.90;74.80;;;;;;5028596;28;20664;-72
2022/07/31 02:39:51;;;;;;;0.00;0.00;;;18.90;74.90;;;;;;5028183;28;20057;-71
2022/07/31 02:42:18;;;;;;;0.00;0.00;;;18.90;74.90;;;;;;5022978;28;20454;-72
2022/07/31 02:44:45;;;;;;;0.00;0.00;;;18.80;75.10;;;;;;5012743;28;20419;-71
2022/07/31 02:47:11;;;;;;;0.00;0.00;;;18.80;75.10;;;;;;5028792;28;20046;-71
2022/07/31 02:49:37;;;;;;;0.00;0.00;;;18.80;75.00;;;;;;5028636;28;20049;-72
2022/07/31 02:52:04;;;;;;;0.00;0.00;;;18.80;75.00;;;;;;5027577;28;20108;-72
2022/07/31 02:54:32;;;;;;;0.00;0.00;;;18.80;75.10;;;;;;5028294;28;20081;-71
2022/07/31 02:56:58;;;;;;;0.00;0.00;;;18.80;75.20;;;;;;5030443;28;20075;-71
2022/07/31 02:59:23;;;;;;;0.08;0.08;;;18.80;75.30;;;;;;5032595;28;20052;-72
2022/07/31 03:01:49;;;;;;;0.00;0.00;;;18.80;75.30;;;;;;5031428;28;20136;-72
2022/07/31 03:04:14;;;;;;;0.00;0.00;;;18.80;75.30;;;;;;5032342;28;20049;-71
2022/07/31 03:06:40;;;;;;;0.00;0.00;;;18.80;75.30;;;;;;5032052;28;20049;-71
2022/07/31 03:09:06;;;;;;;0.00;0.00;;;18.80;75.40;;;;;;5032195;28;20049;-71
2022/07/31 03:11:31;;;;;;;0.00;0.00;;;18.80;75.40;;;;;;5013976;28;20073;-71
2022/07/31 03:14:00;;;;;;;0.00;0.00;;;18.80;75.40;;;;;;5031486;28;20037;-72
2022/07/31 03:16:28;;;;;;;0.00;0.00;;;18.80;75.50;;;;;;5030751;28;20512;-71
2022/07/31 03:18:55;;;;;;;0.00;0.00;;;18.70;75.80;;;;;;5031884;28;20037;-71
2022/07/31 03:21:21;;;;;;;0.00;0.00;;;18.70;75.70;;;;;;5031654;28;20496;-71
2022/07/31 03:23:48;;;;;;;0.00;0.00;;;18.70;75.60;;;;;;5031497;28;20049;-71
2022/07/31 03:26:14;;;;;;;0.00;0.00;;;18.70;75.80;;;;;;5011695;28;20041;-72
2022/07/31 03:28:41;;;;;;;0.00;0.00;;;18.70;75.80;;;;;;5030616;28;20053;-72
2022/07/31 03:31:07;;;;;;;0.00;0.00;;;18.70;75.70;;;;;;5031678;28;20048;-72
2022/07/31 03:33:32;;;;;;;0.00;0.00;;;18.70;75.80;;;;;;5029450;28;20045;-72
2022/07/31 03:35:59;;;;;;;0.08;0.08;;;18.70;76.00;;;;;;5031382;28;20037;-72
2022/07/31 03:38:25;;;;;;;0.00;0.00;;;18.70;75.90;;;;;;5031488;28;20083;-72
2022/07/31 03:40:51;;;;;;;0.00;0.00;;;18.70;75.90;;;;;;5031148;28;20664;-72
2022/07/31 03:43:18;;;;;;;0.00;0.00;;;18.70;76.20;;;;;;5030353;28;20041;-72
2022/07/31 03:45:45;;;;;;;0.00;0.00;;;18.70;76.00;;;;;;5031128;28;20526;-72
2022/07/31 03:48:10;;;;;;;0.00;0.00;;;18.70;76.00;;;;;;5031251;28;20053;-72
2022/07/31 03:50:39;;;;;;;0.00;0.00;;;18.70;76.20;;;;;;5031114;28;20080;-70
2022/07/31 03:53:05;;;;;;;0.03;0.03;;;18.80;76.20;;;;;;5013316;28;20045;-69
2022/07/31 03:55:33;;;;;;;0.00;0.00;;;18.80;76.00;;;;;;5030155;28;20041;-70
2022/07/31 03:57:59;;;;;;;0.00;0.00;;;18.80;76.10;;;;;;5032309;28;20482;-70
2022/07/31 04:00:26;;;;;;;0.00;0.00;;;18.80;76.10;;;;;;5008122;28;20068;-69
2022/07/31 04:02:55;;;;;;;0.00;0.00;;;18.80;76.00;;;;;;5031262;28;20051;-69
2022/07/31 04:05:22;;;;;;;0.00;0.00;;;18.90;76.00;;;;;;5030454;28;20084;-72
2022/07/31 04:07:48;;;;;;;0.00;0.00;;;18.80;76.00;;;;;;5031563;28;20471;-70
2022/07/31 04:10:14;;;;;;;0.00;0.00;;;18.90;76.00;;;;;;5029265;28;20048;-70
2022/07/31 04:12:40;;;;;;;0.00;0.00;;;18.90;75.90;;;;;;5030532;28;20049;-70
2022/07/31 04:15:06;;;;;;;0.13;0.13;;;18.90;75.90;;;;;;5030659;28;20072;-71
2022/07/31 04:17:31;;;;;;;0.00;0.00;;;18.90;76.10;;;;;;5030245;28;20046;-70
2022/07/31 04:19:57;;;;;;;0.00;0.00;;;18.90;76.20;;;;;;5030236;28;20053;-70
2022/07/31 04:22:22;;;;;;;0.00;0.00;;;18.90;76.30;;;;;;5029390;28;20045;-70
2022/07/31 04:24:48;;;;;;;0.00;0.00;;;18.90;76.20;;;;;;5030794;28;20487;-70
2022/07/31 04:27:17;;;;;;;0.00;0.00;;;18.80;76.40;;;;;;5029084;28;20115;-70
2022/07/31 04:29:43;;;;;;;0.00;0.00;;;18.80;76.40;;;;;;5030543;28;20124;-70
2022/07/31 04:32:09;;;;;;;0.00;0.00;;;18.80;76.40;;;;;;5029353;28;20445;-70
2022/07/31 04:34:35;;;;;;;0.00;0.00;;;18.80;76.40;;;;;;5030293;28;20861;-70
2022/07/31 04:37:00;;;;;;;0.00;0.00;;;18.90;76.40;;;;;;5029683;28;20133;-70
2022/07/31 04:39:26;;;;;;;0.00;0.00;;;18.80;76.50;;;;;;5029190;28;20049;-70
2022/07/31 04:41:52;;;;;;;0.00;0.00;;;18.90;76.40;;;;;;5029764;28;20049;-70
2022/07/31 04:44:18;;;;;;;0.00;0.00;;;18.90;76.60;;;;;;5029015;28;20498;-70
2022/07/31 04:46:43;;;;;;;0.00;0.00;;;18.90;76.70;;;;;;5029814;28;20124;-70
2022/07/31 04:49:11;;;;;;;0.00;0.00;;;18.90;76.60;;;;;;5028841;28;20132;-69
2022/07/31 04:51:38;;;;;;;0.00;0.00;;;18.90;76.60;;;;;;5012489;28;20050;-70
2022/07/31 04:54:04;;;;;;;0.00;0.00;;;18.90;76.70;;;;;;5029949;28;20046;-71
2022/07/31 04:56:32;;;;;;;0.00;0.00;;;18.90;76.70;;;;;;5012761;28;20102;-65
2022/07/31 04:58:59;;;;;;;1.15;0.85;;;18.90;77.00;;;;;;5029322;28;20045;-65
2022/07/31 05:01:25;;;;;;;0.00;0.00;;;19.00;77.30;;;;;;5030393;28;20045;-65
2022/07/31 05:03:50;;;;;;;0.00;0.00;;;19.00;77.10;;;;;;5028309;28;20045;-65
2022/07/31 05:06:16;;;;;;;0.00;0.00;;;19.10;77.10;;;;;;5029362;28;20095;-65
2022/07/31 05:08:42;;;;;;;0.00;0.00;;;19.10;76.90;;;;;;5029033;28;20049;-65
2022/07/31 05:11:23;;;;;;;0.00;0.00;;;19.20;76.80;;;;;;5028733;28;20049;-64
2022/07/31 05:13:53;;;;;;;0.00;0.00;;;19.20;76.90;;;;;;5020435;28;20052;-65
2022/07/31 05:16:19;;;;;;;0.00;0.00;;;19.20;76.80;;;;;;5028438;28;20451;-71
2022/07/31 05:18:45;;;;;;;0.00;0.00;;;19.30;76.80;;;;;;5025444;28;20037;-71
2022/07/31 05:21:12;;;;;;;1.55;0.73;;;19.30;76.70;;;;;;5025324;28;20049;-71
2022/07/31 05:23:39;;;;;;;0.00;0.00;;;19.30;76.70;;;;;;5021201;28;20094;-71
2022/07/31 05:26:05;;;;;;;0.00;0.00;;;19.20;76.60;;;;;;5028908;28;20480;-71
2022/07/31 05:28:31;;;;;;;0.00;0.00;;;19.20;76.50;;;;;;5017086;28;20037;-71
2022/07/31 05:30:56;;;;;;;0.00;0.00;;;19.30;76.60;;;;;;5028056;28;20427;-72
2022/07/31 05:33:22;;;;;;;0.00;0.00;;;19.30;76.70;;;;;;5028935;28;20551;-71
2022/07/31 05:35:48;;;;;;;0.00;0.00;;;19.30;76.70;;;;;;5028332;28;20111;-71
2022/07/31 05:38:13;;;;;;;0.00;0.00;;;19.30;76.70;;;;;;5023601;28;21059;-71
2022/07/31 05:40:39;;;;;;;0.00;0.00;;;19.30;76.70;;;;;;5024530;28;20108;-72
2022/07/31 05:43:04;;;;;;;0.00;0.00;;;19.30;76.80;;;;;;5027694;28;20033;-71
2022/07/31 05:45:31;;;;;;;0.00;0.00;;;19.30;77.00;;;;;;5027950;28;20132;-71
2022/07/31 05:47:56;;;;;;;0.00;0.00;;;19.40;77.00;;;;;;4999503;28;20817;-71
2022/07/31 05:50:22;;;;;;;0.00;0.00;;;19.40;77.00;;;;;;5010020;28;20095;-71
2022/07/31 05:52:50;;;;;;;0.00;0.00;;;19.30;77.10;;;;;;5020441;28;20045;-71
2022/07/31 05:55:16;;;;;;;0.00;0.00;;;19.40;77.10;;;;;;5026546;28;20132;-71
2022/07/31 05:57:42;;;;;;;0.20;0.20;;;19.40;77.00;;;;;;5021113;28;20121;-71
2022/07/31 06:00:08;;;;;;;0.00;0.00;;;19.50;77.00;;;;;;5026520;28;20054;-71
2022/07/31 06:02:34;;;;;;;0.00;0.00;;;19.50;77.00;;;;;;5024562;28;20083;-69
2022/07/31 06:05:00;;;;;;;0.00;0.00;;;19.50;77.10;;;;;;5027899;28;20053;-67
2022/07/31 06:07:25;;;;;;;0.00;0.00;;;19.50;77.10;;;;;;5028127;28;20077;-70
2022/07/31 06:09:51;;;;;;;0.00;0.00;;;19.50;77.30;;;;;;5027482;28;20038;-72
2022/07/31 06:12:17;;;;;;;0.00;0.00;;;19.60;77.30;;;;;;5027726;28;20483;-72
2022/07/31 06:14:43;;;;;;;0.15;0.15;;;19.60;77.30;;;;;;5028521;28;20053;-72
2022/07/31 06:17:08;;;;;;;0.00;0.00;;;19.60;77.40;;;;;;5017946;28;20071;-72
2022/07/31 06:19:34;;;;;;;0.00;0.00;;;19.70;77.60;;;;;;5026084;28;20053;-72
2022/07/31 06:22:00;;;;;;;0.00;0.00;;;19.70;77.50;;;;;;5022663;28;20406;-72
2022/07/31 06:24:25;;;;;;;0.00;0.00;;;19.70;77.20;;;;;;5015795;28;20084;-72
2022/07/31 06:26:56;;;;;;;0.00;0.00;;;19.80;77.40;;;;;;5027974;28;20042;-72
2022/07/31 06:29:22;;;;;;;0.00;0.00;;;19.80;77.30;;;;;;5025802;28;20053;-72
2022/07/31 06:31:48;;;;;;;0.00;0.00;;;19.80;77.40;;;;;;5013320;28;20103;-72
2022/07/31 06:34:13;;;;;;;0.00;0.00;;;19.90;77.20;;;;;;5029378;28;20053;-72
2022/07/31 06:36:39;;;;;;;1.15;0.45;;;19.90;77.10;;;;;;5031984;28;20808;-73
2022/07/31 06:39:05;;;;;;;0.00;0.00;;;19.90;77.10;;;;;;5031435;28;20387;-73
2022/07/31 06:41:48;;;;;;;0.10;0.10;;;20.00;77.10;;;;;;5031336;28;20049;-71
2022/07/31 06:44:15;;;;;;;0.00;0.00;;;20.00;77.20;;;;;;5031864;28;20057;-71
2022/07/31 06:46:41;;;;;;;0.10;0.10;;;20.00;77.60;;;;;;5026963;28;20053;-71
2022/07/31 06:49:07;;;;;;;0.00;0.00;;;20.00;77.80;;;;;;5031319;28;20053;-71
2022/07/31 06:51:33;;;;;;;0.00;0.00;;;20.10;77.80;;;;;;5031822;28;20425;-71
2022/07/31 06:53:59;;;;;;;0.10;0.10;;;20.10;77.20;;;;;;5029425;28;20057;-71
2022/07/31 06:56:25;;;;;;;0.00;0.00;;;20.10;77.60;;;;;;5032148;28;20044;-71
2022/07/31 06:58:51;;;;;;;0.00;0.00;;;20.10;77.90;;;;;;5031509;28;20444;-71
2022/07/31 07:01:16;;;;;;;0.13;0.13;;;20.20;78.30;;;;;;5030991;28;20103;-71
2022/07/31 07:03:42;;;;;;;0.05;0.05;;;20.20;78.00;;;;;;5013066;28;20089;-71
2022/07/31 07:06:08;;;;;;;0.00;0.00;;;20.30;77.70;;;;;;5031317;28;20052;-72
2022/07/31 07:08:33;;;;;;;0.00;0.00;;;20.30;77.70;;;;;;5030950;28;20100;-70
2022/07/31 07:10:59;;;;;;;0.00;0.00;;;20.30;77.70;;;;;;5030767;28;20042;-71
2022/07/31 07:13:25;;;;;;;0.00;0.00;;;20.30;78.50;;;;;;5031169;28;20072;-71
2022/07/31 07:15:51;;;;;;;0.47;0.47;;;20.30;79.00;;;;;;5030595;28;20038;-72
2022/07/31 07:18:17;;;;;;;0.00;0.00;;;20.30;78.60;;;;;;5030693;28;20055;-73
2022/07/31 07:20:43;;;;;;;0.20;0.20;;;20.40;78.90;;;;;;5031577;28;20056;-73
2022/07/31 07:23:08;;;;;;;0.00;0.00;;;20.40;78.30;;;;;;5030987;28;20064;-73
2022/07/31 07:25:34;;;;;;;0.10;0.10;;;20.40;79.40;;;;;;5031819;28;20502;-73
2022/07/31 07:28:00;;;;;;;0.00;0.00;;;20.50;79.00;;;;;;5030143;28;20406;-67
2022/07/31 07:30:27;;;;;;;0.00;0.00;;;20.50;78.90;;;;;;5032283;28;20391;-68
2022/07/31 07:32:53;;;;;;;0.00;0.00;;;20.50;78.90;;;;;;5030841;28;20052;-66
2022/07/31 07:35:20;;;;;;;0.10;0.10;;;20.60;80.20;;;;;;5037537;28;20544;-66
2022/07/31 07:37:47;;;;;;;0.00;0.00;;;20.60;80.20;;;;;;5034287;28;20081;-66
2022/07/31 07:40:13;;;;;;;0.00;0.00;;;20.60;80.20;;;;;;5030980;28;20041;-66
2022/07/31 07:42:39;;;;;;;0.30;0.30;;;20.60;80.00;;;;;;5028747;28;20433;-66
2022/07/31 07:45:06;;;;;;;0.00;0.00;;;20.70;80.30;;;;;;5030874;28;20054;-66
2022/07/31 07:47:31;;;;;;;0.47;0.40;;;20.60;82.20;;;;;;5030800;28;20037;-67
2022/07/31 07:49:57;;;;;;;0.00;0.00;;;20.60;82.50;;;;;;5030377;28;20060;-66
2022/07/31 07:52:22;;;;;;;2.20;0.50;;;20.50;83.60;;;;;;5030454;28;20487;-66
2022/07/31 07:54:48;;;;;;;0.20;0.20;;;20.50;83.80;;;;;;5029654;28;20473;-66
2022/07/31 07:57:15;;;;;;;2.72;2.03;;;20.50;83.80;;;;;;5029194;28;20034;-67
2022/07/31 07:59:41;;;;;;;0.00;0.00;;;20.50;84.00;;;;;;5030042;28;20125;-66
2022/07/31 08:02:07;;;;;;;0.00;0.00;;;20.50;84.40;;;;;;5028597;28;20140;-66
2022/07/31 08:04:32;;;;;;;0.47;0.47;;;20.40;84.10;;;;;;5030340;28;20493;-66
2022/07/31 08:06:58;;;;;;;0.00;0.00;;;20.40;83.60;;;;;;5029412;28;20037;-66
2022/07/31 08:09:24;;;;;;;0.00;0.00;;;20.40;83.90;;;;;;5030017;28;20113;-65
2022/07/31 08:11:50;;;;;;;0.00;0.00;;;20.30;84.10;;;;;;5029707;28;20090;-66
2022/07/31 08:14:15;;;;;;;0.52;0.52;;;20.30;84.40;;;;;;5029867;28;20053;-66
2022/07/31 08:16:41;;;;;;;0.00;0.00;;;20.30;84.80;;;;;;5026362;28;20049;-65
2022/07/31 08:19:07;;;;;;;0.00;0.00;;;20.20;85.10;;;;;;5024609;28;20046;-66
2022/07/31 08:21:36;;;;;;;0.00;0.00;;;20.20;85.10;;;;;;5026012;28;20068;-65
2022/07/31 08:24:02;;;;;;;0.45;0.45;;;20.20;85.70;;;;;;5030639;28;20053;-65
2022/07/31 08:27:22;;;;;;;0.00;0.00;;;20.20;86.20;;;;;;5027723;28;20053;-65
2022/07/31 08:29:13;;;;;;;0.00;0.00;;;20.10;85.00;;;;;;5021789;28;20049;-65
2022/07/31 08:31:39;;;;;;;0.00;0.00;;;20.10;85.10;;;;;;5029497;28;20053;-67
2022/07/31 08:34:04;;;;;;;0.20;0.20;;;20.10;85.60;;;;;;5021808;28;20057;-66
2022/07/31 08:36:30;;;;;;;0.08;0.08;;;20.10;86.30;;;;;;5025418;28;20107;-66
2022/07/31 08:38:56;;;;;;;0.00;0.00;;;20.20;86.90;;;;;;5030094;28;20625;-66
2022/07/31 08:41:21;;;;;;;0.10;0.10;;;20.20;86.50;;;;;;5023013;28;20332;-67
2022/07/31 08:43:47;;;;;;;0.00;0.00;;;20.10;86.00;;;;;;5027367;28;20525;-68
2022/07/31 08:46:13;;;;;;;0.20;0.20;;;20.10;86.80;;;;;;5027332;28;20053;-68
2022/07/31 08:48:40;;;;;;;0.03;0.03;;;20.10;87.20;;;;;;5026819;28;20043;-68
2022/07/31 08:51:07;;;;;;;0.00;0.00;;;20.10;86.30;;;;;;5024957;28;20061;-68
2022/07/31 08:53:35;;;;;;;0.00;0.00;;;20.10;86.40;;;;;;5028470;28;20049;-68
2022/07/31 08:56:02;;;;;;;0.00;0.00;;;20.10;86.20;;;;;;5029235;28;20056;-68
2022/07/31 08:58:28;;;;;;;0.00;0.00;;;20.10;86.40;;;;;;5029000;28;20121;-68
2022/07/31 09:00:54;;;;;;;0.00;0.00;;;20.10;86.50;;;;;;5021131;28;20136;-68
2022/07/31 09:03:20;;;;;;;0.00;0.00;;;20.10;87.30;;;;;;5029311;28;20084;-68
2022/07/31 09:05:45;;;;;;;0.00;0.00;;;20.20;86.60;;;;;;5028640;28;20054;-68
2022/07/31 09:08:11;;;;;;;0.00;0.00;;;20.20;87.00;;;;;;5028515;28;20423;-68
2022/07/31 09:10:37;;;;;;;0.30;0.30;;;20.10;87.50;;;;;;5029908;28;20050;-68
2022/07/31 09:13:12;;;;;;;0.00;0.00;;;20.10;87.60;;;;;;5027896;28;20678;-68
2022/07/31 09:15:38;;;;;;;0.00;0.00;;;20.00;87.60;;;;;;5029072;28;20059;-68
2022/07/31 09:18:15;;;;;;;0.00;0.00;;;20.10;87.60;;;;;;5029142;28;20049;-68
2022/07/31 09:20:53;;;;;;;0.00;0.00;;;20.00;87.30;;;;;;5028743;28;20054;-68
2022/07/31 09:23:18;;;;;;;0.00;0.00;;;20.00;87.20;;;;;;5024082;28;20052;-67
2022/07/31 09:25:54;;;;;;;0.05;0.05;;;20.00;87.30;;;;;;5029484;28;20061;-68
2022/07/31 09:28:29;;;;;;;0.00;0.00;;;20.00;87.60;;;;;;5029334;28;20045;-67
2022/07/31 09:30:55;;;;;;;0.00;0.00;;;20.00;87.90;;;;;;5029024;28;20057;-68
2022/07/31 09:33:21;;;;;;;0.00;0.00;;;20.00;87.70;;;;;;5015083;28;20495;-68
2022/07/31 09:35:51;;;;;;;0.22;0.22;;;20.00;87.70;;;;;;5009439;28;20046;-68
2022/07/31 09:38:17;;;;;;;0.00;0.00;;;20.00;87.80;;;;;;5028355;28;20552;-68
2022/07/31 09:40:44;;;;;;;0.00;0.00;;;20.10;88.70;;;;;;5027960;28;20053;-68
2022/07/31 09:43:18;;;;;;;0.00;0.00;;;20.00;88.80;;;;;;5028604;28;21018;-67
2022/07/31 09:46:05;;;;;;;0.00;0.00;;;20.00;88.40;;;;;;5014934;28;20077;-67
2022/07/31 09:48:31;;;;;;;0.00;0.00;;;20.00;87.80;;;;;;5008824;28;20049;-67
2022/07/31 09:51:02;;;;;;;0.00;0.00;;;20.00;87.50;;;;;;5028857;28;20187;-68
2022/07/31 09:53:44;;;;;;;0.30;0.30;;;20.00;87.50;;;;;;5028745;28;20053;-68
2022/07/31 09:56:11;;;;;;;0.00;0.00;;;20.00;88.20;;;;;;5024900;28;20077;-67
2022/07/31 09:58:38;;;;;;;0.00;0.00;;;20.00;88.30;;;;;;5027350;28;20541;-67
2022/07/31 10:01:04;;;;;;;0.00;0.00;;;20.00;87.70;;;;;;5027735;28;20043;-67
2022/07/31 10:03:31;;;;;;;0.00;0.00;;;20.00;87.70;;;;;;5027976;28;20079;-66
2022/07/31 10:05:57;;;;;;;0.00;0.00;;;20.00;87.90;;;;;;5022785;28;20049;-67
2022/07/31 10:08:25;;;;;;;0.00;0.00;;;20.00;88.00;;;;;;5017714;28;20505;-67
2022/07/31 10:10:51;;;;;;;0.00;0.00;;;20.10;87.80;;;;;;5025865;28;20045;-67
2022/07/31 10:13:19;;;;;;;0.00;0.00;;;20.10;87.80;;;;;;5027421;28;20103;-67
2022/07/31 10:15:48;;;;;;;0.00;0.00;;;20.10;87.80;;;;;;5027697;28;20095;-67
2022/07/31 10:18:18;;;;;;;3.00;1.45;;;20.10;87.80;;;;;;5025040;28;20140;-66
2022/07/31 10:20:51;;;;;;;0.00;0.00;;;20.10;88.10;;;;;;5023644;28;20037;-67
2022/07/31 10:23:21;;;;;;;0.00;0.00;;;20.10;88.40;;;;;;5015626;28;20056;-65
2022/07/31 10:25:58;;;;;;;0.00;0.00;;;20.10;87.80;;;;;;5025474;28;20088;-65
2022/07/31 10:28:24;;;;;;;0.05;0.05;;;20.10;87.60;;;;;;5028822;28;20041;-66
2022/07/31 10:30:51;;;;;;;0.00;0.00;;;20.10;87.50;;;;;;5027358;28;20521;-65
2022/07/31 10:33:17;;;;;;;0.00;0.00;;;20.10;87.60;;;;;;5027024;28;20049;-67
2022/07/31 10:36:29;;;;;;;0.00;0.00;;;20.10;87.80;;;;;;5028159;28;20052;-67
2022/07/31 10:39:23;;;;;;;0.00;0.00;;;20.10;87.80;;;;;;4987034;28;20443;-66
2022/07/31 10:42:18;;;;;;;0.00;0.00;;;20.10;88.50;;;;;;4985783;28;20121;-66
2022/07/31 10:44:57;;;;;;;0.03;0.03;;;20.10;88.30;;;;;;5021974;28;20383;-66
2022/07/31 10:47:24;;;;;;;0.00;0.00;;;20.10;88.10;;;;;;5025913;28;20053;-66
2022/07/31 10:49:50;;;;;;;0.00;0.00;;;20.10;88.70;;;;;;5024855;28;20491;-66
2022/07/31 10:52:28;;;;;;;0.00;0.00;;;20.10;88.30;;;;;;5027679;28;20049;-66
2022/07/31 10:54:57;;;;;;;0.00;0.00;;;20.00;88.60;;;;;;5027802;28;20123;-67
2022/07/31 10:57:33;;;;;;;0.00;0.00;;;20.00;88.50;;;;;;5023267;28;20049;-67
2022/07/31 11:00:13;;;;;;;0.32;0.32;;;19.90;88.40;;;;;;5025284;28;20053;-66
2022/07/31 11:02:39;;;;;;;0.00;0.00;;;19.90;88.40;;;;;;5016223;28;20053;-66
2022/07/31 11:05:16;;;;;;;0.00;0.00;;;20.00;88.60;;;;;;5017653;28;20052;-63
2022/07/31 11:07:44;;;;;;;0.00;0.00;;;20.00;88.60;;;;;;5021093;28;20772;-65
2022/07/31 11:10:19;;;;;;;0.00;0.00;;;19.90;88.60;;;;;;5027819;28;20056;-65
2022/07/31 11:12:57;;;;;;;0.43;0.43;;;19.90;88.70;;;;;;5026396;28;20049;-65
2022/07/31 11:15:24;;;;;;;0.00;0.00;;;19.90;88.80;;;;;;5024770;28;20720;-65
2022/07/31 11:17:51;;;;;;;0.00;0.00;;;19.90;88.50;;;;;;5025542;28;20053;-64
2022/07/31 11:20:23;;;;;;;0.10;0.10;;;19.90;88.70;;;;;;5030326;28;20045;-64
2022/07/31 11:23:00;;;;;;;0.08;0.05;;;19.90;89.20;;;;;;5031336;28;20045;-64
2022/07/31 11:25:31;;;;;;;0.40;0.35;;;19.90;89.10;;;;;;5030266;28;20053;-67
2022/07/31 11:28:09;;;;;;;0.00;0.00;;;19.90;88.90;;;;;;5031270;28;20500;-67
2022/07/31 11:30:46;;;;;;;0.00;0.00;;;19.90;89.30;;;;;;5030622;28;20103;-66
2022/07/31 11:33:12;;;;;;;0.43;0.43;;;19.90;89.30;;;;;;5031793;28;20053;-67
2022/07/31 11:35:38;;;;;;;0.00;0.00;;;19.90;89.10;;;;;;5031255;28;20056;-66
2022/07/31 11:38:03;;;;;;;0.25;0.25;;;19.80;89.30;;;;;;5031454;28;20080;-72
2022/07/31 11:40:29;;;;;;;0.00;0.00;;;19.80;89.40;;;;;;5029768;28;20089;-72
2022/07/31 11:42:57;;;;;;;0.10;0.10;;;19.80;89.50;;;;;;5030964;28;20111;-72
2022/07/31 11:45:22;;;;;;;0.10;0.10;;;19.80;90.20;;;;;;5029940;28;20510;-72
2022/07/31 11:47:50;;;;;;;0.00;0.00;;;19.70;90.10;;;;;;5030662;28;20052;-72
2022/07/31 11:50:16;;;;;;;0.00;0.00;;;19.70;90.60;;;;;;5031063;28;20053;-74
2022/07/31 11:52:42;;;;;;;0.00;0.00;;;19.70;90.30;;;;;;5032345;28;20076;-73
2022/07/31 11:55:15;;;;;;;0.00;0.00;;;19.70;90.10;;;;;;5032245;28;20058;-72
2022/07/31 11:57:41;;;;;;;1.08;0.25;;;19.70;90.40;;;;;;5026762;28;20810;-73
2022/07/31 12:00:15;;;;;;;0.00;0.00;;;19.80;90.60;;;;;;5018886;28;20076;-72
2022/07/31 12:02:44;;;;;;;0.00;0.00;;;19.70;91.10;;;;;;5030298;28;20053;-73
2022/07/31 12:05:12;;;;;;;0.00;0.00;;;19.70;91.50;;;;;;5011967;28;20058;-73
2022/07/31 12:07:42;;;;;;;0.10;0.10;;;19.70;91.40;;;;;;5016449;28;20172;-73
2022/07/31 12:10:10;;;;;;;0.00;0.00;;;19.80;91.40;;;;;;5031064;28;20054;-73
2022/07/31 12:12:37;;;;;;;0.00;0.00;;;19.70;91.80;;;;;;5023234;28;20499;-73
2022/07/31 12:15:17;;;;;;;0.00;0.00;;;19.80;91.90;;;;;;5032180;28;20065;-72
2022/07/31 12:17:44;;;;;;;0.00;0.00;;;19.90;92.20;;;;;;5031095;28;20042;-73
2022/07/31 12:20:10;;;;;;;0.00;0.00;;;20.00;92.20;;;;;;5031088;28;20095;-73
2022/07/31 12:22:36;;;;;;;0.35;0.32;;;20.00;92.10;;;;;;5030129;28;20049;-73
2022/07/31 12:25:01;;;;;;;0.10;0.10;;;20.00;92.00;;;;;;5017764;28;20057;-72
2022/07/31 12:27:27;;;;;;;0.00;0.00;;;20.00;91.90;;;;;;5030236;28;20077;-72
2022/07/31 12:29:53;;;;;;;0.00;0.00;;;20.00;91.90;;;;;;5030409;28;20060;-73
2022/07/31 12:32:25;;;;;;;0.00;0.00;;;20.00;91.90;;;;;;5028837;28;20482;-73
2022/07/31 12:35:04;;;;;;;0.00;0.00;;;20.00;92.00;;;;;;5030832;28;20099;-72
2022/07/31 12:37:40;;;;;;;0.00;0.00;;;20.00;92.00;;;;;;5030489;28;20041;-72
2022/07/31 12:40:06;;;;;;;0.90;0.57;;;20.00;92.20;;;;;;5028279;28;20721;-72
2022/07/31 12:42:34;;;;;;;0.05;0.05;;;19.90;92.20;;;;;;5029611;28;20045;-72
2022/07/31 12:45:01;;;;;;;0.00;0.00;;;19.90;92.20;;;;;;5029474;28;20053;-71
2022/07/31 12:47:30;;;;;;;0.00;0.00;;;19.80;91.90;;;;;;5030518;28;20123;-71
2022/07/31 12:49:57;;;;;;;0.00;0.00;;;19.80;91.80;;;;;;5030140;28;20064;-71
2022/07/31 12:52:24;;;;;;;0.00;0.00;;;19.80;91.90;;;;;;5012162;28;20041;-71